Time;durP1;ratioP1;P1;durP2;ratioP2;P2;SDS_P1;SDS_P2;PMS_P1;PMS_P2;Temp;Humidity;BMP_temperature;BMP_pressure;BME280_temperature;BME280_humidity;BME280_pressure;Samples;Min_cycle;Max_cycle;Signal;HPM_P1;HPM_P2
2023/01/03 00:00:51;;;;;;;24.52;13.15;;;;;;;7.17;100.00;98834.09;5136842;28;20306;-65
2023/01/03 00:03:17;;;;;;;20.20;12.48;;;;;;;7.31;100.00;98839.91;5137126;27;20115;-63
2023/01/03 00:05:44;;;;;;;24.38;13.88;;;;;;;7.36;100.00;98825.97;5139865;28;20048;-65
2023/01/03 00:08:10;;;;;;;30.20;13.95;;;;;;;7.06;100.00;98829.16;5140782;28;20440;-65
2023/01/03 00:10:37;;;;;;;24.83;13.57;;;;;;;7.35;100.00;98818.16;5140354;28;20055;-63
2023/01/03 00:13:03;;;;;;;29.05;13.90;;;;;;;7.13;100.00;98828.53;5140262;28;20413;-64
2023/01/03 00:15:33;;;;;;;23.90;13.38;;;;;;;7.27;100.00;98826.19;5140581;28;20051;-63
2023/01/03 00:17:59;;;;;;;24.27;13.65;;;;;;;7.41;100.00;98833.91;5140383;28;20051;-64
2023/01/03 00:20:25;;;;;;;31.75;14.02;;;;;;;7.29;100.00;98837.50;5140481;28;20103;-64
2023/01/03 00:22:51;;;;;;;24.92;13.95;;;;;;;7.51;100.00;98844.31;5140046;28;20448;-64
2023/01/03 00:25:18;;;;;;;27.60;14.48;;;;;;;7.39;100.00;98863.47;5140271;28;20051;-65
2023/01/03 00:27:44;;;;;;;23.95;12.93;;;;;;;7.44;100.00;98870.63;5140071;28;20055;-65
2023/01/03 00:30:12;;;;;;;25.35;13.77;;;;;;;7.43;100.00;98878.00;5140328;28;20408;-63
2023/01/03 00:32:38;;;;;;;22.95;14.18;;;;;;;7.39;100.00;98901.66;5139988;28;20065;-65
2023/01/03 00:35:05;;;;;;;26.65;13.65;;;;;;;7.24;100.00;98905.94;5140399;28;20067;-64
2023/01/03 00:37:32;;;;;;;26.75;13.45;;;;;;;7.21;100.00;98897.66;5139936;28;20062;-64
2023/01/03 00:39:58;;;;;;;23.52;13.25;;;;;;;6.97;100.00;98882.22;5140211;28;20473;-64
2023/01/03 00:42:24;;;;;;;27.75;13.98;;;;;;;7.36;100.00;98850.53;5139812;28;20043;-66
2023/01/03 00:44:50;;;;;;;22.60;14.00;;;;;;;7.34;100.00;98869.19;5139625;28;20108;-63
2023/01/03 00:47:17;;;;;;;22.88;13.10;;;;;;;7.10;100.00;98867.41;5140102;28;20051;-65
2023/01/03 00:49:43;;;;;;;30.70;13.80;;;;;;;7.19;100.00;98850.88;5139689;28;20467;-63
2023/01/03 00:52:10;;;;;;;25.30;13.27;;;;;;;7.26;100.00;98835.50;5139978;27;20335;-65
2023/01/03 00:54:36;;;;;;;30.60;13.63;;;;;;;7.20;100.00;98827.94;5139561;28;20051;-63
2023/01/03 00:57:03;;;;;;;26.77;13.88;;;;;;;7.37;100.00;98822.13;5139973;28;20396;-63
2023/01/03 00:59:29;;;;;;;22.63;12.50;;;;;;;7.08;100.00;98826.84;5139688;28;20058;-65
2023/01/03 01:01:56;;;;;;;24.10;13.73;;;;;;;7.35;100.00;98820.91;5139776;28;20079;-63
2023/01/03 01:04:25;;;;;;;26.23;12.98;;;;;;;7.36;100.00;98817.03;5139462;28;20138;-64
2023/01/03 01:06:54;;;;;;;26.08;14.90;;;;;;;7.54;100.00;98827.22;5139820;28;20103;-63
2023/01/03 01:09:25;;;;;;;20.45;12.35;;;;;;;7.54;100.00;98831.91;5139375;27;20061;-63
2023/01/03 01:11:52;;;;;;;27.35;13.85;;;;;;;7.48;100.00;98842.28;5139289;28;20404;-64
2023/01/03 01:14:20;;;;;;;27.02;13.75;;;;;;;7.68;100.00;98856.00;5139588;27;20135;-63
2023/01/03 01:16:49;;;;;;;26.38;13.77;;;;;;;7.59;100.00;98869.81;5138994;27;20080;-63
2023/01/03 01:19:16;;;;;;;28.92;14.10;;;;;;;7.53;100.00;98872.03;5139483;28;20075;-64
2023/01/03 01:21:44;;;;;;;22.02;13.93;;;;;;;7.20;100.00;98869.63;5139106;28;20047;-65
2023/01/03 01:24:11;;;;;;;20.85;12.13;;;;;;;7.12;100.00;98848.75;5139473;28;20142;-64
2023/01/03 01:26:37;;;;;;;28.58;13.52;;;;;;;7.20;100.00;98814.31;5139041;28;20043;-64
2023/01/03 01:29:04;;;;;;;23.90;13.48;;;;;;;7.65;100.00;98813.84;5139502;28;20336;-63
2023/01/03 01:31:31;;;;;;;21.60;11.75;;;;;;;7.11;100.00;98841.72;5138970;28;20051;-65
2023/01/03 01:33:57;;;;;;;25.58;13.00;;;;;;;7.19;100.00;98816.22;5139391;28;20057;-66
2023/01/03 01:36:26;;;;;;;26.58;13.07;;;;;;;7.12;100.00;98809.78;5138961;28;20051;-64
2023/01/03 01:38:55;;;;;;;25.15;13.25;;;;;;;7.41;100.00;98803.13;5139080;28;20055;-63
2023/01/03 01:46:48;;;;;;;30.23;14.80;;;;;;;7.23;100.00;98832.66;5139057;28;20142;-65
2023/01/03 01:49:19;;;;;;;24.80;13.43;;;;;;;7.15;100.00;98826.25;5138771;28;20347;-64
2023/01/03 01:51:46;;;;;;;29.95;13.40;;;;;;;7.29;100.00;98801.28;5139113;27;20047;-66
2023/01/03 01:54:13;;;;;;;28.80;14.02;;;;;;;7.25;100.00;98795.72;5138589;27;20051;-63
2023/01/03 01:56:42;;;;;;;27.17;12.75;;;;;;;7.09;100.00;98808.56;5138619;28;20054;-64
2023/01/03 01:59:11;;;;;;;27.23;12.65;;;;;;;7.11;100.00;98798.09;5138788;28;20051;-64
2023/01/03 02:01:39;;;;;;;23.88;13.38;;;;;;;7.20;100.00;98793.28;5138575;28;20047;-65
2023/01/03 02:04:10;;;;;;;23.42;13.52;;;;;;;7.30;100.00;98792.75;5138586;28;20055;-65
2023/01/03 02:06:38;;;;;;;23.35;13.15;;;;;;;7.34;100.00;98801.03;5138562;28;20047;-62
2023/01/03 02:09:04;;;;;;;29.02;14.45;;;;;;;7.26;100.00;98807.44;5138738;28;20396;-65
2023/01/03 02:11:42;;;;;;;23.80;13.80;;;;;;;7.20;100.00;98789.78;5138526;28;20047;-64
2023/01/03 02:14:26;;;;;;;29.73;13.90;;;;;;;7.30;100.00;98794.69;5138768;28;20051;-65
2023/01/03 02:17:02;;;;;;;24.30;14.53;;;;;;;7.03;100.00;98810.78;5138571;28;20310;-65
2023/01/03 02:20:10;;;;;;;29.08;13.48;;;;;;;6.92;100.00;98796.06;5138383;28;20053;-65
2023/01/03 02:23:24;;;;;;;22.95;12.48;;;;;;;6.90;100.00;98782.00;5138439;28;20047;-63
2023/01/03 02:26:24;;;;;;;27.17;12.77;;;;;;;6.89;100.00;98763.25;5138155;28;20043;-65
2023/01/03 02:29:21;;;;;;;28.10;14.57;;;;;;;6.94;100.00;98761.06;5137778;28;20373;-65
2023/01/03 02:31:55;;;;;;;27.35;13.98;;;;;;;6.81;100.00;98751.41;5138321;28;20142;-63
2023/01/03 02:34:29;;;;;;;27.05;13.40;;;;;;;6.85;100.00;98749.53;5137959;28;20444;-64
2023/01/03 02:37:05;;;;;;;26.27;14.63;;;;;;;6.81;100.00;98746.72;5138471;27;20397;-64
2023/01/03 02:39:39;;;;;;;27.35;14.73;;;;;;;7.01;100.00;98746.84;5138170;28;20051;-64
2023/01/03 02:45:01;;;;;;;23.92;13.98;;;;;;;6.83;100.00;98757.25;5138207;28;20443;-65
2023/01/03 02:47:34;;;;;;;23.02;12.82;;;;;;;6.74;100.00;98754.72;5137776;28;20127;-63
2023/01/03 02:50:02;;;;;;;22.45;12.80;;;;;;;6.81;100.00;98744.00;5138229;28;20055;-64
2023/01/03 02:52:30;;;;;;;30.88;14.27;;;;;;;6.88;100.00;98746.13;5137660;28;20049;-65
2023/01/03 02:54:59;;;;;;;21.67;13.35;;;;;;;6.92;100.00;98759.84;5138171;28;20319;-63
2023/01/03 02:57:31;;;;;;;24.60;14.10;;;;;;;6.81;100.00;98765.00;5137888;28;20051;-63
2023/01/03 03:00:02;;;;;;;23.30;13.07;;;;;;;6.98;100.00;98755.72;5137599;28;20043;-63
2023/01/03 03:02:34;;;;;;;23.60;12.80;;;;;;;6.83;100.00;98757.25;5137680;27;20112;-64
2023/01/03 03:05:04;;;;;;;27.55;13.48;;;;;;;7.02;100.00;98749.19;5137336;28;20360;-64
2023/01/03 03:07:33;;;;;;;25.73;13.07;;;;;;;7.23;100.00;98746.22;5137810;28;20141;-64
2023/01/03 03:13:12;;;;;;;26.45;13.07;;;;;;;7.12;100.00;98755.28;5074912;28;20040;-64
2023/01/03 03:15:48;;;;;;;24.38;13.48;;;;;;;7.18;100.00;98771.03;5129308;28;20084;-63
2023/01/03 03:18:19;;;;;;;30.10;13.27;;;;;;;7.16;100.00;98786.13;5137604;28;20137;-63
2023/01/03 03:26:24;;;;;;;24.88;13.43;;;;;;;7.48;100.00;98820.44;5137898;28;20054;-66
2023/01/03 03:28:55;;;;;;;31.80;14.52;;;;;;;7.54;100.00;98829.97;5137197;28;20043;-63
2023/01/03 03:31:30;;;;;;;26.40;13.20;;;;;;;7.27;100.00;98842.53;5137109;28;20428;-63
2023/01/03 03:34:01;;;;;;;28.67;13.65;;;;;;;7.30;100.00;98830.94;5137268;27;20350;-62
2023/01/03 03:36:34;;;;;;;25.58;12.88;;;;;;;7.57;100.00;98838.59;5137265;28;20051;-63
2023/01/03 03:39:01;;;;;;;26.15;13.10;;;;;;;7.46;100.00;98835.59;5139480;27;20047;-63
2023/01/03 03:47:18;;;;;;;23.52;13.25;;;;;;;7.41;100.00;98857.69;5140831;28;20483;-65
2023/01/03 03:49:48;;;;;;;23.98;12.02;;;;;;;7.44;100.00;98859.72;5140834;28;20192;-65
2023/01/03 03:52:18;;;;;;;25.45;13.07;;;;;;;7.49;100.00;98870.34;5140829;28;20150;-64
2023/01/03 03:54:52;;;;;;;22.98;13.85;;;;;;;7.42;100.00;98870.16;5140501;28;20138;-64
2023/01/03 03:57:22;;;;;;;;;;;;;;;7.44;100.00;98865.16;5141284;28;20149;-63
2023/01/03 03:59:52;;;;;;;25.13;12.15;;;;;;;7.41;100.00;98872.09;5140457;28;19934;-65
2023/01/03 04:02:20;;;;;;;27.48;13.07;;;;;;;7.48;100.00;98871.50;5140847;28;20061;-65
2023/01/03 04:04:51;;;;;;;23.00;12.38;;;;;;;7.54;100.00;98861.91;5140280;28;20138;-65
2023/01/03 04:07:17;;;;;;;24.48;13.38;;;;;;;7.55;100.00;98845.19;5140599;28;20051;-64
2023/01/03 04:09:44;;;;;;;27.20;13.43;;;;;;;7.73;100.00;98859.28;5140615;28;20043;-64
2023/01/03 04:12:10;;;;;;;25.02;12.43;;;;;;;7.86;100.00;98861.88;5140488;28;20047;-64
2023/01/03 04:14:36;;;;;;;24.17;12.32;;;;;;;7.78;100.00;98871.84;5140615;28;20138;-63
2023/01/03 04:17:03;;;;;;;22.60;12.15;;;;;;;7.98;100.00;98880.88;5140292;28;20057;-64
2023/01/03 04:19:32;;;;;;;22.83;12.15;;;;;;;8.17;100.00;98902.00;5140370;27;20145;-62
2023/01/03 04:21:58;;;;;;;18.67;11.90;;;;;;;7.78;100.00;98923.69;5140048;28;20423;-64
2023/01/03 04:24:25;;;;;;;28.73;12.82;;;;;;;7.91;100.00;98897.09;5140441;28;20055;-63
2023/01/03 04:26:51;;;;;;;21.35;11.65;;;;;;;7.91;100.00;98906.09;5140093;28;20339;-65
2023/01/03 04:29:17;;;;;;;24.02;12.10;;;;;;;8.09;100.00;98905.72;5140523;28;20047;-63
2023/01/03 04:31:43;;;;;;;23.25;11.85;;;;;;;7.97;100.00;98912.88;5139840;28;20047;-65
2023/01/03 04:34:10;;;;;;;25.48;13.02;;;;;;;8.19;100.00;98913.34;5140216;28;20055;-63
2023/01/03 04:36:36;;;;;;;23.65;12.07;;;;;;;8.30;100.00;98917.13;5139972;28;20047;-65
2023/01/03 04:39:03;;;;;;;18.90;11.38;;;;;;;8.25;100.00;98929.09;5139837;28;20053;-62
2023/01/03 04:41:29;;;;;;;22.80;12.07;;;;;;;8.10;100.00;98934.63;5140168;28;20043;-65
2023/01/03 04:44:01;;;;;;;19.73;11.63;;;;;;;8.24;100.00;98935.72;5139588;28;20068;-64
2023/01/03 04:46:28;;;;;;;21.13;11.95;;;;;;;7.97;100.00;98939.38;5140077;28;20096;-65
2023/01/03 04:48:55;;;;;;;22.00;13.63;;;;;;;8.33;100.00;98923.81;5139755;28;20428;-63
2023/01/03 04:51:21;;;;;;;19.08;11.10;;;;;;;8.15;100.00;98945.25;5139326;27;20047;-63
2023/01/03 04:53:47;;;;;;;23.67;11.02;;;;;;;8.38;100.00;98951.69;5139617;28;20059;-65
2023/01/03 04:56:14;;;;;;;24.90;12.27;;;;;;;8.15;100.00;98967.88;5140002;28;20143;-63
2023/01/03 04:58:40;;;;;;;27.30;12.40;;;;;;;8.26;100.00;98984.53;5139344;28;20058;-64
2023/01/03 05:01:07;;;;;;;24.17;12.23;;;;;;;8.45;100.00;98978.38;5139659;28;20047;-64
2023/01/03 05:03:34;;;;;;;26.50;11.27;;;;;;;8.16;100.00;98995.97;5139589;28;20435;-63
2023/01/03 05:06:01;;;;;;;23.85;11.52;;;;;;;8.21;100.00;98990.25;5139203;28;20047;-63
2023/01/03 05:08:28;;;;;;;24.27;10.65;;;;;;;8.43;100.00;98989.66;5139553;28;20047;-64
2023/01/03 05:10:54;;;;;;;25.85;10.38;;;;;;;8.07;100.00;99004.38;5139304;28;20055;-64
2023/01/03 05:13:22;;;;;;;18.40;11.57;;;;;;;8.46;100.00;98991.69;5139478;28;20043;-69
2023/01/03 05:15:48;;;;;;;21.58;9.90;;;;;;;8.20;100.00;99016.00;5139204;28;20062;-69
2023/01/03 05:18:14;;;;;;;18.42;10.20;;;;;;;8.48;100.00;99019.44;5139378;27;20059;-66
2023/01/03 05:26:12;;;;;;;25.08;11.77;;;;;;;8.37;100.00;99021.09;5139177;28;20308;-65
2023/01/03 05:28:41;;;;;;;21.35;11.25;;;;;;;8.70;100.00;99041.81;5138852;28;20046;-72
2023/01/03 05:31:07;;;;;;;20.02;10.20;;;;;;;7.96;100.00;99058.69;5139228;28;20047;-70
2023/01/03 05:33:33;;;;;;;18.63;11.00;;;;;;;8.43;100.00;99030.66;5138908;28;20066;-65
2023/01/03 05:35:59;;;;;;;16.70;10.05;;;;;;;8.42;100.00;99037.22;5138943;27;20043;-71
2023/01/03 05:38:26;;;;;;;18.05;9.52;;;;;;;8.74;100.00;99047.34;5138717;28;20071;-61
2023/01/03 05:40:52;;;;;;;22.40;10.23;;;;;;;8.58;100.00;99063.75;5139152;28;20107;-72
2023/01/03 05:43:19;;;;;;;23.15;10.43;;;;;;;8.54;100.00;99069.16;5138554;28;20047;-64
2023/01/03 05:45:49;;;;;;;22.65;11.10;;;;;;;8.55;100.00;99068.00;5138882;28;20051;-71
2023/01/03 05:48:15;;;;;;;18.52;10.10;;;;;;;8.28;100.00;99079.78;5138362;27;20408;-65
2023/01/03 05:50:42;;;;;;;19.67;9.85;;;;;;;8.47;100.00;99060.78;5138921;28;20043;-71
2023/01/03 05:53:08;;;;;;;17.02;9.55;;;;;;;8.68;100.00;99060.50;5138844;28;20054;-67
2023/01/03 05:55:36;;;;;;;17.73;9.70;;;;;;;8.69;100.00;99082.00;5138817;28;20321;-71
2023/01/03 05:58:03;;;;;;;23.50;10.18;;;;;;;8.08;100.00;99087.06;5138581;28;20050;-70
2023/01/03 06:00:29;;;;;;;22.77;10.50;;;;;;;8.33;100.00;99076.75;5138526;28;20051;-68
2023/01/03 06:02:56;;;;;;;19.83;9.98;;;;;;;8.14;100.00;99097.38;5137360;27;20131;-70
2023/01/03 06:05:22;;;;;;;17.20;9.18;;;;;;;8.43;100.00;99090.75;5138536;28;20065;-66
2023/01/03 06:07:48;;;;;;;18.02;9.23;;;;;;;8.18;100.00;99097.47;5138452;28;20457;-60
2023/01/03 06:10:15;;;;;;;14.90;8.15;;;;;;;8.51;100.00;99096.38;5138383;28;20062;-69
2023/01/03 06:12:41;;;;;;;15.93;6.95;;;;;;;8.36;100.00;99134.22;5138617;28;20062;-68
2023/01/03 06:15:08;;;;;;;13.25;7.70;;;;;;;8.52;100.00;99156.13;5138016;28;20047;-68
2023/01/03 06:20:20;;;;;;;11.82;5.50;;;;;;;8.13;100.00;99183.19;5138203;28;20058;-61
2023/01/03 06:22:46;;;;;;;5.03;3.75;;;;;;;8.14;100.00;99220.25;5138206;28;20047;-66
2023/01/03 06:25:13;;;;;;;3.28;1.98;;;;;;;7.55;100.00;99186.19;5137986;28;20055;-66
2023/01/03 06:27:39;;;;;;;2.80;1.70;;;;;;;7.50;100.00;99134.59;5137808;28;20058;-64
2023/01/03 06:30:06;;;;;;;4.57;2.40;;;;;;;7.40;100.00;99057.91;5138024;28;20419;-67
2023/01/03 06:32:33;;;;;;;7.28;2.38;;;;;;;7.07;100.00;98998.94;5137703;28;20047;-68
2023/01/03 06:34:59;;;;;;;1.77;1.35;;;;;;;7.21;100.00;98958.44;5138178;28;20140;-68
2023/01/03 06:37:26;;;;;;;3.97;2.40;;;;;;;7.00;100.00;98933.31;5137748;28;20130;-67
2023/01/03 06:39:52;;;;;;;2.67;0.80;;;;;;;7.23;100.00;98907.09;5138157;28;20082;-69
2023/01/03 06:53:20;;;;;;;;;;;;;;;6.72;100.00;98952.34;5138568;28;20373;-66
2023/01/03 06:55:46;;;;;;;5.05;1.65;;;;;;;6.81;100.00;98942.91;5137443;28;19923;-69
2023/01/03 06:58:13;;;;;;;1.02;0.90;;;;;;;6.95;100.00;98974.44;5137440;28;20047;-68
2023/01/03 07:00:42;;;;;;;4.63;2.55;;;;;;;7.10;100.00;98923.84;5137727;28;20059;-69
2023/01/03 07:03:08;;;;;;;4.45;2.10;;;;;;;6.97;100.00;98883.03;5137182;28;20043;-69
2023/01/03 07:05:35;;;;;;;2.00;0.93;;;;;;;7.01;100.00;98885.84;5137446;28;20058;-65
2023/01/03 07:08:01;;;;;;;13.90;5.15;;;;;;;6.96;100.00;98858.81;5137518;28;20069;-68
2023/01/03 07:10:28;;;;;;;4.65;1.70;;;;;;;7.37;100.00;98860.31;5137493;28;20400;-65
2023/01/03 07:15:43;;;;;;;1.25;1.00;;;;;;;6.98;100.00;98905.59;5111224;28;20043;-65
2023/01/03 07:18:09;;;;;;;1.35;1.25;;;;;;;7.14;100.00;98902.94;5137244;28;20142;-64
2023/01/03 07:20:39;;;;;;;5.68;2.60;;;;;;;6.93;100.00;98909.38;5137053;28;20043;-68
2023/01/03 07:23:05;;;;;;;3.30;1.45;;;;;;;6.96;100.00;98940.59;5137323;28;20096;-67
2023/01/03 07:25:32;;;;;;;4.28;2.20;;;;;;;7.05;100.00;98927.59;5137169;28;20141;-65
2023/01/03 07:27:58;;;;;;;0.90;0.90;;;;;;;7.00;100.00;98925.94;5137253;28;20066;-68
2023/01/03 07:30:24;;;;;;;4.00;1.60;;;;;;;6.72;100.00;98897.88;5137049;28;20087;-66
2023/01/03 07:32:51;;;;;;;26.73;2.95;;;;;;;6.90;100.00;98953.69;5137201;28;20327;-66
2023/01/03 07:35:17;;;;;;;1.50;1.38;;;;;;;7.01;100.00;98932.97;5136962;28;20447;-64
2023/01/03 07:37:43;;;;;;;2.90;2.10;;;;;;;7.16;100.00;98936.06;5137285;27;20062;-66
2023/01/03 07:40:10;;;;;;;8.55;5.22;;;;;;;6.99;100.00;98927.06;5136968;28;20134;-67
2023/01/03 07:45:21;;;;;;;1.45;1.20;;;;;;;7.02;100.00;98871.06;5136751;27;20444;-68
2023/01/03 07:47:47;;;;;;;1.40;1.30;;;;;;;6.97;100.00;98883.03;5136756;28;20428;-64
2023/01/03 07:50:14;;;;;;;3.30;2.35;;;;;;;6.75;100.00;98880.84;5136856;28;20061;-68
2023/01/03 07:52:40;;;;;;;1.88;1.30;;;;;;;7.04;100.00;98880.47;5136955;28;20062;-64
2023/01/03 07:55:07;;;;;;;2.42;1.10;;;;;;;7.01;100.00;98856.66;5136845;27;20051;-67
2023/01/03 07:57:33;;;;;;;5.45;3.70;;;;;;;7.34;100.00;98838.41;5136626;28;20051;-69
2023/01/03 08:00:00;;;;;;;3.22;1.98;;;;;;;7.36;100.00;98784.28;5137108;28;20073;-65
2023/01/03 08:02:26;;;;;;;1.70;1.10;;;;;;;7.06;100.00;98750.09;5136496;28;20060;-68
2023/01/03 08:04:52;;;;;;;1.73;1.50;;;;;;;7.01;100.00;98731.28;5136905;28;20047;-67
2023/01/03 08:07:18;;;;;;;1.60;1.40;;;;;;;6.84;100.00;98745.25;5136512;28;20058;-67
2023/01/03 08:15:14;;;;;;;9.65;4.88;;;;;;;7.27;100.00;98774.38;5136550;28;20135;-68
2023/01/03 08:17:41;;;;;;;5.28;2.22;;;;;;;7.15;100.00;98785.34;5136675;28;20042;-66
2023/01/03 08:20:08;;;;;;;1.95;1.45;;;;;;;7.19;100.00;98782.72;5136635;28;20278;-68
2023/01/03 08:22:34;;;;;;;1.33;0.98;;;;;;;7.18;100.00;98718.44;5136661;28;20051;-66
2023/01/03 08:25:00;;;;;;;2.45;1.15;;;;;;;6.96;100.00;98734.25;5136880;27;20332;-68
2023/01/03 08:27:27;;;;;;;1.45;1.05;;;;;;;7.05;100.00;98699.44;5140265;28;20140;-66
2023/01/03 08:29:53;;;;;;;6.45;2.92;;;;;;;6.83;100.00;98760.81;5139841;28;20091;-69
2023/01/03 08:32:20;;;;;;;0.75;0.70;;;;;;;7.13;100.00;98688.72;5140155;28;20137;-65
2023/01/03 08:34:47;;;;;;;3.70;2.13;;;;;;;7.04;100.00;98615.31;5139728;28;20434;-65
2023/01/03 08:37:15;;;;;;;2.25;1.50;;;;;;;7.24;100.00;98583.44;5139826;28;20070;-66
2023/01/03 08:39:47;;;;;;;1.75;1.63;;;;;;;7.42;100.00;98537.44;5139671;28;20357;-69
2023/01/03 08:42:19;;;;;;;3.75;2.30;;;;;;;7.36;100.00;98455.13;5139715;28;20050;-65
2023/01/03 08:44:47;;;;;;;1.42;1.23;;;;;;;7.30;100.00;98501.00;5139793;27;20050;-64
2023/01/03 08:47:14;;;;;;;4.80;1.58;;;;;;;7.40;100.00;98425.22;5139701;28;20050;-68
2023/01/03 08:49:42;;;;;;;3.92;1.42;;;;;;;7.22;100.00;98461.09;5139861;27;20061;-66
2023/01/03 08:52:08;;;;;;;2.50;1.10;;;;;;;7.03;100.00;98388.31;5139626;28;20047;-72
2023/01/03 08:54:35;;;;;;;3.03;1.50;;;;;;;7.21;100.00;98394.09;5139924;28;20141;-70
2023/01/03 08:57:01;;;;;;;1.83;1.00;;;;;;;7.50;100.00;98331.91;5139401;28;20139;-63
2023/01/03 08:59:27;;;;;;;2.17;1.00;;;;;;;7.33;100.00;98275.91;5139882;28;20326;-70
2023/01/03 09:01:57;;;;;;;3.50;1.35;;;;;;;7.03;100.00;98373.88;5139206;28;20062;-65
2023/01/03 09:04:23;;;;;;;2.28;1.20;;;;;;;7.24;100.00;98396.09;5139095;28;20093;-63
2023/01/03 09:06:50;;;;;;;1.30;0.90;;;;;;;7.27;100.00;98517.28;5139751;28;20047;-73
2023/01/03 09:09:16;;;;;;;3.22;1.55;;;;;;;7.00;100.00;98538.13;5139355;28;20133;-67
2023/01/03 09:11:43;;;;;;;1.63;0.90;;;;;;;6.97;100.00;98594.13;5139423;28;20099;-72
2023/01/03 09:14:09;;;;;;;12.07;4.25;;;;;;;6.79;100.00;98636.50;5139167;28;20058;-66
2023/01/03 09:16:35;;;;;;;3.80;1.40;;;;;;;6.58;100.00;98751.19;5139723;27;20047;-64
2023/01/03 09:19:01;;;;;;;3.42;1.10;;;;;;;6.73;100.00;98873.03;5139083;28;20043;-66
2023/01/03 09:21:28;;;;;;;2.85;1.00;;;;;;;6.88;100.00;98938.81;5139538;28;20061;-71
2023/01/03 09:23:55;;;;;;;5.07;2.67;;;;;;;6.98;100.00;98939.09;5138938;28;20047;-69
2023/01/03 09:26:21;;;;;;;2.33;1.40;;;;;;;7.22;100.00;98900.03;5139528;28;20051;-64
2023/01/03 09:28:47;;;;;;;1.80;1.08;;;;;;;7.48;100.00;98828.63;5138949;27;20051;-67
2023/01/03 09:31:14;;;;;;;1.50;1.00;;;;;;;7.43;100.00;98796.19;5139178;28;20301;-63
2023/01/03 09:33:40;;;;;;;2.58;1.30;;;;;;;7.54;100.00;98772.69;5138958;28;20072;-67
2023/01/03 09:36:07;;;;;;;1.00;0.77;;;;;;;7.54;100.00;98616.41;5138614;27;20112;-63
2023/01/03 09:38:33;;;;;;;0.90;0.80;;;;;;;7.34;100.00;98555.59;5139184;28;20061;-66
2023/01/03 09:41:04;;;;;;;1.52;0.93;;;;;;;7.57;100.00;98513.97;5138955;28;20073;-66
2023/01/03 09:43:36;;;;;;;2.95;0.85;;;;;;;7.39;100.00;98499.97;5139135;28;20081;-71
2023/01/03 09:46:04;;;;;;;2.60;0.93;;;;;;;7.49;100.00;98578.50;5138600;28;20051;-66
2023/01/03 09:48:33;;;;;;;1.70;1.17;;;;;;;7.14;100.00;98611.25;5138916;28;20051;-69
2023/01/03 09:51:00;;;;;;;1.63;1.08;;;;;;;7.26;100.00;98726.44;5138424;28;20043;-65
2023/01/03 10:05:09;;;;;;;4.28;1.10;;;;;;;6.42;100.00;99197.69;5138111;28;20455;-68
2023/01/03 10:07:58;;;;;;;1.92;1.42;;;;;;;6.56;100.00;99227.34;5137943;28;20047;-64
2023/01/03 10:10:37;;;;;;;1.92;1.17;;;;;;;6.55;100.00;99215.66;5138431;28;20051;-69
2023/01/03 10:13:14;;;;;;;1.73;0.90;;;;;;;6.60;100.00;99212.75;5138075;28;20051;-64
2023/01/03 10:15:50;;;;;;;1.80;1.13;;;;;;;6.41;100.00;99146.31;5138413;28;20437;-71
2023/01/03 10:18:34;;;;;;;4.63;1.58;;;;;;;6.32;100.00;99135.50;5138073;27;20054;-69
2023/01/03 10:21:07;;;;;;;1.75;1.00;;;;;;;6.31;100.00;99147.53;5138051;28;20078;-63
2023/01/03 10:23:33;;;;;;;1.20;0.80;;;;;;;6.19;100.00;99102.00;5138165;28;20066;-68
2023/01/03 10:26:00;;;;;;;4.25;2.22;;;;;;;6.18;100.00;99045.97;5137932;28;20073;-63
2023/01/03 10:28:33;;;;;;;4.43;1.95;;;;;;;6.22;100.00;99006.06;5138035;28;20053;-65
2023/01/03 10:31:16;;;;;;;3.40;1.70;;;;;;;6.30;100.00;98928.94;5137849;28;20100;-66
2023/01/03 10:33:44;;;;;;;1.75;0.80;;;;;;;6.41;100.00;98879.47;5138554;27;20073;-65
2023/01/03 10:36:11;;;;;;;2.25;1.25;;;;;;;6.44;100.00;98857.00;5137696;28;20405;-68
2023/01/03 10:38:39;;;;;;;1.00;0.80;;;;;;;6.43;100.00;98690.09;5138215;28;20062;-69
2023/01/03 10:41:15;;;;;;;2.63;0.70;;;;;;;6.31;100.00;98600.31;5137844;28;20051;-74
2023/01/03 10:43:44;;;;;;;1.52;1.08;;;;;;;6.21;100.00;98596.19;5137896;28;20306;-66
2023/01/03 10:46:15;;;;;;;5.13;1.10;;;;;;;6.32;100.00;98604.63;5137801;28;20051;-67
2023/01/03 10:48:42;;;;;;;2.88;1.02;;;;;;;6.24;100.00;98541.03;5136984;27;20061;-66
2023/01/03 10:51:25;;;;;;;4.53;1.48;;;;;;;6.20;100.00;98586.44;5137833;28;20058;-67
2023/01/03 10:53:54;;;;;;;3.45;1.15;;;;;;;6.13;100.00;98621.63;5137591;28;20043;-66
2023/01/03 10:56:21;;;;;;;2.35;1.27;;;;;;;6.06;100.00;98603.16;5137899;28;20051;-64
2023/01/03 10:59:08;;;;;;;1.48;0.95;;;;;;;6.32;100.00;98540.06;5137236;28;20338;-63
2023/01/03 11:01:35;;;;;;;4.13;1.48;;;;;;;6.74;100.00;98345.31;5137285;28;20059;-63
2023/01/03 11:04:14;;;;;;;1.08;0.90;;;;;;;7.20;100.00;98220.00;5137444;28;20054;-68
2023/01/03 11:06:57;;;;;;;3.40;1.27;;;;;;;7.37;100.00;98077.72;5137293;28;20064;-64
2023/01/03 11:09:23;;;;;;;3.10;1.40;;;;;;;7.76;100.00;98041.91;5137487;28;20057;-66
2023/01/03 11:11:54;;;;;;;1.83;1.10;;;;;;;7.87;100.00;97982.81;5137222;28;20058;-67
2023/01/03 11:14:24;;;;;;;2.42;0.95;;;;;;;8.38;100.00;97948.53;5137590;27;20047;-68
2023/01/03 11:16:57;;;;;;;2.15;0.93;;;;;;;8.25;100.00;97948.03;5137105;28;20454;-66
2023/01/03 11:19:26;;;;;;;1.42;0.70;;;;;;;8.18;100.00;97967.09;5137087;28;20400;-64
2023/01/03 11:22:00;;;;;;;1.05;0.70;;;;;;;8.04;100.00;98022.34;5137548;28;20308;-64
2023/01/03 11:24:52;;;;;;;1.08;0.70;;;;;;;7.34;100.00;97995.88;5137198;28;20055;-67
2023/01/03 11:27:34;;;;;;;2.85;1.00;;;;;;;7.57;100.00;97982.91;5137364;28;20051;-65
2023/01/03 11:30:22;;;;;;;2.85;0.80;;;;;;;7.55;100.00;97994.16;5136982;28;20134;-64
2023/01/03 11:33:04;;;;;;;3.30;1.13;;;;;;;7.43;100.00;97971.81;5133690;28;20086;-64
2023/01/03 11:35:50;;;;;;;1.27;0.95;;;;;;;7.27;100.00;97980.22;5137282;28;20064;-63
2023/01/03 11:38:27;;;;;;;1.48;0.93;;;;;;;6.91;100.00;97957.97;5136799;28;20051;-67
2023/01/03 11:41:04;;;;;;;1.70;1.30;;;;;;;6.65;100.00;97977.84;5136746;27;20138;-67
2023/01/03 11:43:45;;;;;;;6.95;1.27;;;;;;;6.74;100.00;97993.94;5136370;28;20051;-64
2023/01/03 11:46:42;;;;;;;3.80;1.50;;;;;;;6.54;100.00;97983.16;5136419;28;20200;-64
2023/01/03 11:49:20;;;;;;;1.70;0.90;;;;;;;6.44;100.00;97978.34;5135240;28;20083;-63
2023/01/03 11:51:58;;;;;;;1.67;1.30;;;;;;;6.09;100.00;97970.38;5136078;28;20137;-65
2023/01/03 11:54:44;;;;;;;4.18;1.50;;;;;;;6.27;100.00;97965.25;5136491;28;20058;-65
2023/01/03 11:57:19;;;;;;;1.75;0.50;;;;;;;6.39;100.00;97962.31;5136070;28;20130;-65
2023/01/03 11:59:55;;;;;;;4.25;1.63;;;;;;;6.38;100.00;97968.13;5137817;27;20062;-67
2023/01/03 12:02:55;;;;;;;3.60;0.88;;;;;;;6.33;100.00;97974.66;5139895;27;20073;-66
2023/01/03 12:05:36;;;;;;;6.53;2.58;;;;;;;6.27;100.00;97989.75;5139867;28;20075;-67
2023/01/03 12:08:21;;;;;;;6.60;2.40;;;;;;;6.20;100.00;97976.00;5140356;28;20408;-64
2023/01/03 12:10:53;;;;;;;1.55;0.95;;;;;;;6.39;100.00;97977.84;5139839;28;20058;-66
2023/01/03 12:13:26;;;;;;;2.60;1.52;;;;;;;6.47;100.00;97985.00;5139851;28;20054;-66
2023/01/03 12:16:02;;;;;;;1.38;1.20;;;;;;;6.38;100.00;97974.34;5139735;28;20349;-66
2023/01/03 12:18:39;;;;;;;2.45;0.70;;;;;;;6.36;100.00;98001.94;5139753;28;20051;-66
2023/01/03 12:21:11;;;;;;;1.33;0.93;;;;;;;6.39;100.00;98010.50;5139734;27;20047;-65
2023/01/03 12:23:43;;;;;;;1.40;0.90;;;;;;;6.29;100.00;97984.69;5139721;28;20188;-65
2023/01/03 12:26:13;;;;;;;3.92;0.60;;;;;;;6.13;100.00;98004.69;5140091;28;20051;-67
2023/01/03 12:28:40;;;;;;;2.15;0.70;;;;;;;6.32;100.00;97994.84;5139699;28;20043;-64
2023/01/03 12:31:18;;;;;;;2.40;1.00;;;;;;;6.34;100.00;98001.50;5140091;28;20320;-66
2023/01/03 12:33:53;;;;;;;2.35;0.80;;;;;;;6.29;100.00;98001.81;5139941;27;20364;-65
2023/01/03 12:36:28;;;;;;;1.98;1.13;;;;;;;6.24;100.00;97995.91;5139500;28;20138;-65
2023/01/03 12:39:02;;;;;;;24.73;10.57;;;;;;;6.32;100.00;97997.56;5139748;27;20332;-65
2023/01/03 12:41:39;;;;;;;5.70;2.22;;;;;;;6.32;100.00;98003.81;5139477;28;20100;-65
2023/01/03 12:44:14;;;;;;;5.60;1.08;;;;;;;6.45;100.00;98006.34;5139702;28;20043;-67